Nearby METAR Reports

 

KIOB - Mount Sterling, Kentucky, USA
Distance from station: NNW 14mi, 23km
Updated: Tue, 20-Apr-2021 4:15am EDT
Clear
Clear
 Wind from SW
Wind: SW 6 mph , 9 km/h
Temperature: 46°F , 8°C
Wind Chill: 43°F , 6°C
Dew Point: 37°F , 3°C
Humidity: 71%
Barometer: 29.98 inHg , 1015.2 hPa
Clouds: Clear
Visibility: 10 miles , 16 km
2021/04/20 08:15 KIOB 200815Z AUTO 23005KT 10SM CLR 08/03 A2998 RMK AO2
KSYM - Morehead, Kentucky, USA
Distance from station: NE 31mi, 49km
Updated: Tue, 20-Apr-2021 4:15am EDT
Clear
Clear
 Wind from SW
Wind: SW 8 mph , 13 km/h
Temperature: 52°F , 11°C
Dew Point: 36°F , 2°C
Humidity: 54%
Barometer: 29.97 inHg , 1014.9 hPa
Clouds: Clear
Visibility: 10 miles , 16 km
2021/04/20 08:15 KSYM 200815Z AUTO 22007KT 10SM CLR 11/02 A2997 RMK AO2
 
KJKL - Noctor/Jackson, Kentucky, USA
Distance from station: ESE 36mi, 58km
Updated: Tue, 20-Apr-2021 3:53am EDT
Clear
Clear
 Wind from SW
Wind: SW 3 mph , 6 km/h
Temperature: 52°F , 11°C
Dew Point: 36°F , 2°C
Humidity: 54%
Barometer: 29.98 inHg , 1015.2 hPa
Clouds: Clear
Visibility: 10 miles , 16 km
2021/04/20 07:53 KJKL 200753Z AUTO 22003KT 10SM CLR 11/02 A2998 RMK AO2 SLP146 T01060017
KLEX - Lexington, Kentucky, USA
Distance from station: WNW 40mi, 65km
Updated: Tue, 20-Apr-2021 3:54am EDT
Clear
Clear
 Wind from SSW
Wind: SSW 6 mph , 9 km/h
Temperature: 45°F , 7°C
Wind Chill: 42°F , 6°C
Dew Point: 36°F , 2°C
Humidity: 71%
Barometer: 29.96 inHg , 1014.6 hPa
Clouds: Clear
Visibility: 10 miles , 16 km
2021/04/20 07:54 KLEX 200754Z 20005KT 10SM CLR 07/02 A2996 RMK AO2 SLP143 T00720022
 
KFGX - Flemingsburg, Kentucky, USA
Distance from station: N 49mi, 79km
Updated: Tue, 20-Apr-2021 3:55am EDT
Clear
Clear
 Wind from WNW
Wind: WNW 3 mph , 6 km/h
Temperature: 46°F , 8°C
Dew Point: 37°F , 3°C
Humidity: 71%
Barometer: 29.97 inHg , 1014.9 hPa
Clouds: Clear
Visibility: 10 miles , 16 km
2021/04/20 07:55 KFGX 200755Z AUTO 30003KT 10SM CLR 08/03 A2997 RMK AO2 T00810028